Time;durP1;ratioP1;P1;durP2;ratioP2;P2;SDS_P1;SDS_P2;PMS_P1;PMS_P2;Temp;Humidity;BMP_temperature;BMP_pressure;BME280_temperature;BME280_humidity;BME280_pressure;Samples;Min_cycle;Max_cycle;Signal;HPM_P1;HPM_P2
2023/07/15 00:00:36;;;;;;;;;;;;;;;17.92;65.31;100259.09;5100336;28;5245;-80
2023/07/15 00:03:03;;;;;;;;;;;;;;;17.92;65.17;100256.38;5119950;27;5607;-79
2023/07/15 00:05:30;;;;;;;;;;;;;;;17.91;65.25;100251.19;5100537;28;5198;-79
2023/07/15 00:07:57;;;;;;;;;;;;;;;17.91;65.46;100256.63;5101967;28;5606;-81
2023/07/15 00:10:24;;;;;;;;;;;;;;;17.90;65.34;100257.75;5101376;28;5313;-82
2023/07/15 00:12:50;;;;;;;;;;;;;;;17.90;65.44;100258.56;5104653;28;5056;-80
2023/07/15 00:15:17;;;;;;;;;;;;;;;17.89;65.42;100256.13;5104904;28;5431;-80
2023/07/15 00:17:44;;;;;;;;;;;;;;;17.89;65.43;100250.66;5103562;28;5322;-81
2023/07/15 00:20:14;;;;;;;;;;;;;;;17.88;65.37;100252.59;5094106;28;5333;-80
2023/07/15 00:22:41;;;;;;;;;;;;;;;17.87;65.17;100248.22;5100633;28;5616;-82
2023/07/15 00:25:07;;;;;;;;;;;;;;;17.88;65.32;100254.47;5085858;28;5990;-80
2023/07/15 00:27:35;;;;;;;;;;;;;;;17.86;65.03;100253.94;5100953;28;5345;-79
2023/07/15 00:30:02;;;;;;;;;;;;;;;17.85;65.14;100253.13;5106031;27;5460;-80
2023/07/15 00:32:28;;;;;;;;;;;;;;;17.86;65.11;100253.94;5107156;28;5253;-79
2023/07/15 00:34:55;;;;;;;;;;;;;;;17.84;64.99;100256.94;5108451;28;5588;-81
2023/07/15 00:37:22;;;;;;;;;;;;;;;17.85;65.21;100257.75;5109923;27;5193;-80
2023/07/15 00:39:49;;;;;;;;;;;;;;;17.84;65.27;100250.69;5107587;28;5534;-80
2023/07/15 00:42:16;;;;;;;;;;;;;;;17.83;65.08;100252.59;5108148;28;5240;-80
2023/07/15 00:44:42;;;;;;;;;;;;;;;17.82;65.25;100250.13;5108797;28;5636;-80
2023/07/15 00:47:14;;;;;;;;;;;;;;;17.83;65.02;100260.75;5110171;28;5317;-80
2023/07/15 00:49:41;;;;;;;;;;;;;;;17.81;65.05;100251.22;5108187;28;5186;-78
2023/07/15 00:52:09;;;;;;;;;;;;;;;17.81;64.81;100259.41;5107475;28;5516;-79
2023/07/15 00:54:36;;;;;;;;;;;;;;;17.80;64.89;100249.59;5104896;27;5185;-79
2023/07/15 00:57:03;;;;;;;;;;;;;;;17.80;65.04;100258.59;5089147;28;5403;-79
2023/07/15 00:59:29;;;;;;;;;;;;;;;17.78;65.08;100252.59;5107020;28;5543;-79
2023/07/15 01:01:56;;;;;;;;;;;;;;;17.78;65.28;100255.31;5108016;27;5282;-78
2023/07/15 01:04:23;;;;;;;;;;;;;;;17.78;64.98;100255.31;5106555;27;5905;-79
2023/07/15 01:06:49;;;;;;;;;;;;;;;17.77;64.88;100250.13;5108763;27;5806;-78
2023/07/15 01:09:16;;;;;;;;;;;;;;;17.76;64.98;100257.44;5102484;28;5303;-78
2023/07/15 01:11:43;;;;;;;;;;;;;;;17.76;64.81;100253.91;5066343;28;5720;-78
2023/07/15 01:14:12;;;;;;;;;;;;;;;17.77;65.12;100252.84;5050421;28;5291;-78
2023/07/15 01:16:39;;;;;;;;;;;;;;;17.75;64.86;100253.09;5063301;28;5662;-79
2023/07/15 01:19:06;;;;;;;;;;;;;;;17.74;64.80;100253.41;5068727;28;5704;-77
2023/07/15 01:21:32;;;;;;;;;;;;;;;17.75;65.05;100249.56;5058906;28;5273;-78
2023/07/15 01:23:59;;;;;;;;;;;;;;;17.73;64.81;100249.84;5066206;28;5362;-79
2023/07/15 01:26:26;;;;;;;;;;;;;;;17.73;64.78;100259.91;5058347;28;5916;-77
2023/07/15 01:28:52;;;;;;;;;;;;;;;17.72;64.95;100250.94;5064264;28;5647;-77
2023/07/15 01:31:19;;;;;;;;;;;;;;;17.72;64.71;100256.38;5045637;28;6025;-77
2023/07/15 01:33:47;;;;;;;;;;;;;;;17.71;64.74;100252.84;5052422;28;5637;-76
2023/07/15 01:36:13;;;;;;;;;;;;;;;17.69;64.84;100257.75;5079574;28;5788;-78
2023/07/15 01:38:41;;;;;;;;;;;;;;;17.69;64.72;100252.28;5049200;28;5182;-76
2023/07/15 01:41:07;;;;;;;;;;;;;;;17.69;64.77;100255.03;5062096;28;5926;-77
2023/07/15 01:43:34;;;;;;;;;;;;;;;17.68;64.62;100258.84;5064538;28;5787;-80
2023/07/15 01:46:00;;;;;;;;;;;;;;;17.68;64.73;100255.31;5059207;28;5274;-78
2023/07/15 01:48:27;;;;;;;;;;;;;;;17.67;64.68;100253.66;5066395;28;6037;-77
2023/07/15 01:50:53;;;;;;;;;;;;;;;17.67;64.62;100261.81;5043779;28;5529;-77
2023/07/15 01:53:20;;;;;;;;;;;;;;;17.67;64.71;100259.09;5058433;28;5570;-77
2023/07/15 01:55:46;;;;;;;;;;;;;;;17.66;64.72;100252.03;5060694;28;5408;-77
2023/07/15 01:58:13;;;;;;;;;;;;;;;17.67;64.56;100253.66;5063445;28;4999;-77
2023/07/15 02:00:39;;;;;;;;;;;;;;;17.65;64.68;100261.31;5060368;28;6294;-77
2023/07/15 02:03:06;;;;;;;;;;;;;;;17.64;64.74;100251.47;5063516;28;5025;-77
2023/07/15 02:05:32;;;;;;;;;;;;;;;17.64;64.58;100263.19;5061384;28;6169;-78
2023/07/15 02:07:59;;;;;;;;;;;;;;;17.64;64.59;100263.19;5057650;28;5549;-77
2023/07/15 02:10:25;;;;;;;;;;;;;;;17.63;64.50;100250.66;5082636;28;5268;-77
2023/07/15 02:12:52;;;;;;;;;;;;;;;17.62;64.52;100254.50;5104035;28;5257;-78
2023/07/15 02:15:19;;;;;;;;;;;;;;;17.61;64.52;100252.84;5102822;27;5438;-76
2023/07/15 02:17:45;;;;;;;;;;;;;;;17.61;64.47;100252.03;5100594;28;5450;-76
2023/07/15 02:20:12;;;;;;;;;;;;;;;17.61;64.51;100252.03;5102725;28;5198;-76
2023/07/15 02:22:38;;;;;;;;;;;;;;;17.62;64.47;100259.13;5082722;27;5195;-76
2023/07/15 02:25:05;;;;;;;;;;;;;;;17.61;64.41;100249.31;5085030;28;6262;-75
2023/07/15 02:27:31;;;;;;;;;;;;;;;17.60;64.44;100253.94;5102493;28;5184;-79
2023/07/15 02:29:59;;;;;;;;;;;;;;;17.61;64.35;100258.28;5085821;28;5386;-77
2023/07/15 02:32:25;;;;;;;;;;;;;;;17.63;64.23;100256.13;5099499;28;6288;-75
2023/07/15 02:34:52;;;;;;;;;;;;;;;17.60;64.48;100253.94;5099314;28;5453;-77
2023/07/15 02:37:19;;;;;;;;;;;;;;;17.59;64.51;100248.75;5099608;28;5213;-74
2023/07/15 02:39:45;;;;;;;;;;;;;;;17.65;64.12;100261.31;5085271;28;5252;-75
2023/07/15 02:42:12;;;;;;;;;;;;;;;17.63;64.08;100247.94;5101540;28;5178;-77
2023/07/15 02:44:38;;;;;;;;;;;;;;;17.63;64.18;100250.66;5101217;28;5760;-77
2023/07/15 02:47:05;;;;;;;;;;;;;;;17.60;64.18;100248.50;5100504;28;5374;-75
2023/07/15 02:49:32;;;;;;;;;;;;;;;17.68;63.89;100250.66;5101827;28;6165;-75
2023/07/15 02:51:58;;;;;;;;;;;;;;;17.77;63.50;100244.69;5089119;28;5300;-75
2023/07/15 02:54:25;;;;;;;;;;;;;;;18.06;62.72;100240.28;5079593;28;6195;-75
2023/07/15 02:56:53;;;;;;;;;;;;;;;17.92;63.11;100236.50;5102978;27;6038;-76
2023/07/15 02:59:20;;;;;;;;;;;;;;;17.80;63.39;100236.78;5099312;28;5213;-76
2023/07/15 03:01:46;;;;;;;;;;;;;;;18.04;62.57;100228.84;5100396;28;5804;-76
2023/07/15 03:04:13;;;;;;;;;;;;;;;17.75;63.29;100235.94;5099264;27;5892;-77
2023/07/15 03:06:41;;;;;;;;;;;;;;;17.75;63.40;100225.06;5102515;28;5211;-76
2023/07/15 03:09:08;;;;;;;;;;;;;;;18.03;62.57;100229.09;5098879;28;6293;-77
2023/07/15 03:11:34;;;;;;;;;;;;;;;17.95;62.57;100230.50;5050777;28;5040;-74
2023/07/15 03:14:01;;;;;;;;;;;;;;;17.84;63.08;100224.25;5057927;28;5248;-75
2023/07/15 03:16:28;;;;;;;;;;;;;;;17.79;63.19;100228.88;5059119;28;5630;-76
2023/07/15 03:18:54;;;;;;;;;;;;;;;18.27;61.52;100215.69;5062595;28;5123;-76
2023/07/15 03:21:21;;;;;;;;;;;;;;;18.19;62.07;100224.44;5059762;28;6155;-76
2023/07/15 03:23:47;;;;;;;;;;;;;;;18.09;61.85;100225.28;5077016;28;5067;-76
2023/07/15 03:26:14;;;;;;;;;;;;;;;18.08;62.33;100227.16;5061023;28;5230;-76
2023/07/15 03:28:40;;;;;;;;;;;;;;;18.12;62.00;100227.47;5051639;28;5456;-76
2023/07/15 03:31:07;;;;;;;;;;;;;;;18.30;61.26;100218.66;5059858;28;5155;-77
2023/07/15 03:33:33;;;;;;;;;;;;;;;18.20;61.62;100226.88;5077016;28;5896;-75
2023/07/15 03:36:00;;;;;;;;;;;;;;;18.51;60.31;100219.38;5041033;28;5512;-76
2023/07/15 03:38:27;;;;;;;;;;;;;;;18.41;60.80;100211.22;5059872;28;5966;-77
2023/07/15 03:40:53;;;;;;;;;;;;;;;18.34;60.88;100214.28;5059818;28;6084;-76
2023/07/15 03:43:20;;;;;;;;;;;;;;;18.45;60.43;100217.78;5062181;28;5134;-76
2023/07/15 03:45:46;;;;;;;;;;;;;;;18.47;60.50;100215.59;5059717;28;5287;-76
2023/07/15 03:48:13;;;;;;;;;;;;;;;18.41;60.67;100218.59;5062107;28;5097;-75
2023/07/15 03:50:39;;;;;;;;;;;;;;;18.49;60.18;100218.03;5059877;28;5556;-76
2023/07/15 03:53:06;;;;;;;;;;;;;;;18.50;60.40;100216.91;5060395;28;5423;-76
2023/07/15 03:55:32;;;;;;;;;;;;;;;18.63;59.92;100221.78;5058020;28;5787;-77
2023/07/15 03:57:59;;;;;;;;;;;;;;;18.45;60.36;100209.59;5059069;28;5667;-78
2023/07/15 04:00:26;;;;;;;;;;;;;;;18.54;60.16;100212.56;5059442;28;6622;-76
2023/07/15 04:02:54;;;;;;;;;;;;;;;18.50;60.16;100206.00;5072333;28;5728;-75
2023/07/15 04:05:20;;;;;;;;;;;;;;;18.35;60.34;100210.47;5063875;28;5192;-77
2023/07/15 04:07:47;;;;;;;;;;;;;;;18.53;59.87;100208.19;5095189;28;5239;-76
2023/07/15 04:10:14;;;;;;;;;;;;;;;18.51;60.04;100207.66;5070778;28;5166;-76
2023/07/15 04:12:42;;;;;;;;;;;;;;;18.48;59.81;100208.22;5065539;28;5173;-75
2023/07/15 04:15:30;;;;;;;;;;;;;;;18.52;59.89;100210.09;5083006;28;6302;-77
2023/07/15 04:18:22;;;;;;;;;;;;;;;18.54;59.75;100210.63;5087594;28;5253;-77
2023/07/15 04:21:14;;;;;;;;;;;;;;;18.25;60.49;100204.25;5081890;28;5740;-79
2023/07/15 04:24:06;;;;;;;;;;;;;;;18.35;60.32;100205.00;5084110;28;5207;-77
2023/07/15 04:26:58;;;;;;;;;;;;;;;18.31;60.14;100198.47;5085416;28;5992;-78
2023/07/15 04:29:50;;;;;;;;;;;;;;;18.27;60.44;100205.59;5083329;28;5751;-77
2023/07/15 04:32:42;;;;;;;;;;;;;;;18.41;59.83;100202.25;5084455;28;5243;-78
2023/07/15 04:35:34;;;;;;;;;;;;;;;18.44;60.07;100196.22;5082484;28;5345;-78
2023/07/15 04:38:26;;;;;;;;;;;;;;;18.49;59.52;100197.03;5085297;28;6283;-78
2023/07/15 04:41:18;;;;;;;;;;;;;;;18.25;60.47;100198.78;5081309;28;5176;-78
2023/07/15 04:44:10;;;;;;;;;;;;;;;18.36;59.83;100203.91;5083049;28;5383;-78
2023/07/15 04:47:02;;;;;;;;;;;;;;;18.32;59.99;100202.00;5087044;28;5524;-79
2023/07/15 04:49:54;;;;;;;;;;;;;;;18.49;59.35;100201.66;5083369;28;6348;-79
2023/07/15 04:52:45;;;;;;;;;;;;;;;18.40;59.85;100206.88;5084178;28;6086;-79
2023/07/15 04:55:32;;;;;;;;;;;;;;;18.37;59.77;100200.06;5083628;28;6234;-78
2023/07/15 04:58:19;;;;;;;;;;;;;;;18.36;59.85;100201.19;5083304;28;5338;-78
2023/07/15 05:01:05;;;;;;;;;;;;;;;18.57;59.31;100201.09;5085236;28;5084;-78
2023/07/15 05:03:32;;;;;;;;;;;;;;;18.25;60.18;100196.06;5084864;28;5286;-78
2023/07/15 05:05:58;;;;;;;;;;;;;;;18.35;59.66;100199.56;5088641;28;5183;-81
2023/07/15 05:08:25;;;;;;;;;;;;;;;18.32;60.05;100197.41;5084751;28;5667;-81
2023/07/15 05:10:51;;;;;;;;;;;;;;;18.46;59.73;100203.03;5079685;28;5859;-78
2023/07/15 05:13:18;;;;;;;;;;;;;;;18.29;59.93;100200.66;5107052;28;5326;-78
2023/07/15 05:15:44;;;;;;;;;;;;;;;18.39;59.73;100208.81;5102435;28;5563;-79
2023/07/15 05:18:11;;;;;;;;;;;;;;;18.33;59.85;100201.75;5087458;28;5240;-79
2023/07/15 05:20:38;;;;;;;;;;;;;;;18.37;59.70;100205.53;5102828;28;5466;-79
2023/07/15 05:23:04;;;;;;;;;;;;;;;18.32;59.67;100204.75;5123287;27;5503;-78
2023/07/15 05:25:31;;;;;;;;;;;;;;;18.47;59.49;100198.41;5101230;28;5406;-81
2023/07/15 05:27:58;;;;;;;;;;;;;;;18.39;59.62;100203.34;5094945;28;5334;-79
2023/07/15 05:30:24;;;;;;;;;;;;;;;18.20;60.23;100196.06;5095176;28;5186;-79
2023/07/15 05:32:51;;;;;;;;;;;;;;;18.16;60.29;100190.38;5104538;27;5574;-79
2023/07/15 05:35:17;;;;;;;;;;;;;;;18.42;59.48;100196.53;5109124;27;5342;-79
2023/07/15 05:37:44;;;;;;;;;;;;;;;18.32;59.60;100200.13;5097130;28;5323;-79
2023/07/15 05:40:10;;;;;;;;;;;;;;;18.42;59.46;100193.81;5089533;28;5335;-79
2023/07/15 05:42:37;;;;;;;;;;;;;;;18.41;59.53;100197.59;5106451;28;5189;-79
2023/07/15 05:45:03;;;;;;;;;;;;;;;18.23;59.65;100204.50;5104808;28;5343;-79
2023/07/15 05:47:30;;;;;;;;;;;;;;;18.15;59.79;100194.19;5100817;27;5356;-79
2023/07/15 05:49:57;;;;;;;;;;;;;;;18.33;59.54;100190.84;5104011;28;5298;-80
2023/07/15 05:52:23;;;;;;;;;;;;;;;18.25;59.67;100194.16;5104674;27;5547;-79
2023/07/15 05:54:50;;;;;;;;;;;;;;;18.32;59.47;100199.28;5107843;28;5310;-79
2023/07/15 05:57:16;;;;;;;;;;;;;;;18.39;59.38;100186.19;5108003;28;5773;-80
2023/07/15 05:59:43;;;;;;;;;;;;;;;18.29;59.48;100191.66;5105466;28;5704;-79
2023/07/15 06:02:09;;;;;;;;;;;;;;;18.35;59.45;100199.56;5106370;28;5331;-79
2023/07/15 06:04:37;;;;;;;;;;;;;;;18.29;59.41;100200.66;5105723;28;5371;-80
2023/07/15 06:07:04;;;;;;;;;;;;;;;18.44;59.13;100197.03;5090884;28;5450;-79
2023/07/15 06:09:30;;;;;;;;;;;;;;;18.38;59.20;100203.63;5096752;27;6255;-80
2023/07/15 06:11:57;;;;;;;;;;;;;;;18.28;59.51;100203.69;5097043;28;5272;-77
2023/07/15 06:14:23;;;;;;;;;;;;;;;18.32;59.47;100202.00;5094965;28;5223;-80
2023/07/15 06:16:50;;;;;;;;;;;;;;;18.40;58.97;100206.88;5082776;28;5089;-83
2023/07/15 06:19:16;;;;;;;;;;;;;;;18.28;59.32;100212.66;5101992;28;5312;-82
2023/07/15 06:21:43;;;;;;;;;;;;;;;18.13;60.04;100215.44;5088600;28;5631;-78
2023/07/15 06:24:09;;;;;;;;;;;;;;;18.28;59.51;100209.13;5104284;28;5286;-78
2023/07/15 06:26:36;;;;;;;;;;;;;;;18.38;59.09;100212.63;5105275;28;5411;-77
2023/07/15 06:29:03;;;;;;;;;;;;;;;18.20;59.59;100213.22;5104596;28;5528;-76
2023/07/15 06:31:31;;;;;;;;;;;;;;;18.28;59.35;100211.84;5083594;28;6242;-74
2023/07/15 06:33:58;;;;;;;;;;;;;;;18.30;59.36;100210.47;5103999;28;6123;-76
2023/07/15 06:36:24;;;;;;;;;;;;;;;18.41;58.86;100208.50;5100154;28;6514;-78
2023/07/15 06:38:51;;;;;;;;;;;;;;;18.10;59.76;100208.66;5085039;28;5401;-75
2023/07/15 06:41:17;;;;;;;;;;;;;;;18.18;59.83;100204.53;5100486;27;6292;-76
2023/07/15 06:43:44;;;;;;;;;;;;;;;17.95;60.13;100208.69;5106410;27;5459;-76
2023/07/15 06:46:11;;;;;;;;;;;;;;;17.94;60.44;100204.31;5100874;28;5506;-76
2023/07/15 06:48:37;;;;;;;;;;;;;;;18.16;59.57;100198.53;5078020;28;5348;-77
2023/07/15 06:51:04;;;;;;;;;;;;;;;18.29;59.16;100194.41;5100522;28;5374;-76
2023/07/15 06:53:30;;;;;;;;;;;;;;;18.23;59.30;100203.69;5101087;28;6064;-77
2023/07/15 06:55:57;;;;;;;;;;;;;;;18.08;60.04;100210.81;5089234;28;5272;-79
2023/07/15 06:58:23;;;;;;;;;;;;;;;18.23;59.32;100209.13;5070375;28;5666;-78
2023/07/15 07:00:50;;;;;;;;;;;;;;;18.23;59.25;100199.06;5091693;28;5106;-76
2023/07/15 07:03:17;;;;;;;;;;;;;;;18.22;59.15;100204.78;5094235;28;5319;-76
2023/07/15 07:05:43;;;;;;;;;;;;;;;18.14;59.70;100211.63;5090971;28;5353;-77
2023/07/15 07:08:10;;;;;;;;;;;;;;;18.24;59.31;100206.16;5088984;28;6068;-76
2023/07/15 07:10:37;;;;;;;;;;;;;;;18.02;59.92;100206.50;5101880;28;5373;-78
2023/07/15 07:13:04;;;;;;;;;;;;;;;17.82;60.45;100206.53;5103466;28;5437;-79
2023/07/15 07:15:31;;;;;;;;;;;;;;;18.14;59.60;100198.81;5082414;28;5548;-78
2023/07/15 07:17:58;;;;;;;;;;;;;;;18.04;59.64;100212.47;5101781;28;5289;-78
2023/07/15 07:20:25;;;;;;;;;;;;;;;18.11;59.29;100199.38;5079844;28;5262;-79
2023/07/15 07:22:52;;;;;;;;;;;;;;;17.63;61.24;100204.38;5073907;28;5993;-78
2023/07/15 07:25:18;;;;;;;;;;;;;;;18.09;59.86;100206.22;5091127;28;5293;-79
2023/07/15 07:27:45;;;;;;;;;;;;;;;18.08;59.68;100201.84;5076510;28;5126;-78
2023/07/15 07:30:11;;;;;;;;;;;;;;;17.98;59.91;100201.88;5076007;28;5444;-78
2023/07/15 07:32:41;;;;;;;;;;;;;;;17.72;60.54;100201.91;5095830;28;5113;-78
2023/07/15 07:35:08;;;;;;;;;;;;;;;17.42;61.86;100205.50;5095466;28;5397;-80
2023/07/15 07:37:34;;;;;;;;;;;;;;;17.57;61.42;100204.66;5094334;28;4953;-78
2023/07/15 07:40:01;;;;;;;;;;;;;;;17.48;61.72;100207.13;5096112;28;5231;-79
2023/07/15 07:42:28;;;;;;;;;;;;;;;17.37;62.03;100203.59;5100405;28;5021;-79
2023/07/15 07:44:55;;;;;;;;;;;;;;;17.18;62.50;100199.81;5097175;28;5359;-78
2023/07/15 07:47:22;;;;;;;;;;;;;;;17.38;61.94;100204.41;5092672;28;5057;-79
2023/07/15 07:49:48;;;;;;;;;;;;;;;17.19;62.73;100202.22;5096167;28;5059;-78
2023/07/15 07:52:15;;;;;;;;;;;;;;;17.17;62.83;100204.41;5094154;28;5292;-79
2023/07/15 07:54:41;;;;;;;;;;;;;;;17.14;62.83;100201.41;5097636;28;5099;-79
2023/07/15 07:57:08;;;;;;;;;;;;;;;17.10;62.95;100203.88;5096928;28;5311;-79
2023/07/15 07:59:35;;;;;;;;;;;;;;;17.11;62.88;100200.03;5078790;28;5323;-79
2023/07/15 08:02:02;;;;;;;;;;;;;;;17.09;63.12;100199.53;5097347;28;5087;-78
2023/07/15 08:04:29;;;;;;;;;;;;;;;17.11;62.83;100205.50;5076377;28;5689;-79
2023/07/15 08:06:55;;;;;;;;;;;;;;;17.10;62.99;100197.63;5077851;28;5485;-78
2023/07/15 08:09:22;;;;;;;;;;;;;;;17.10;62.88;100201.16;5074503;28;5505;-77
2023/07/15 08:11:52;;;;;;;;;;;;;;;17.10;63.09;100198.44;5098564;28;5178;-77
2023/07/15 08:14:20;;;;;;;;;;;;;;;17.11;62.84;100194.59;5088333;28;5283;-78
2023/07/15 08:16:47;;;;;;;;;;;;;;;17.10;62.88;100200.34;5092675;28;5193;-76
2023/07/15 08:19:15;;;;;;;;;;;;;;;17.11;62.66;100197.31;5092348;28;5199;-79
2023/07/15 08:21:41;;;;;;;;;;;;;;;17.09;62.99;100204.13;5092332;28;6263;-78
2023/07/15 08:24:08;;;;;;;;;;;;;;;17.15;62.73;100205.78;5072688;28;5517;-80
2023/07/15 08:26:34;;;;;;;;;;;;;;;17.12;62.95;100217.19;5091228;28;5251;-76
2023/07/15 08:29:02;;;;;;;;;;;;;;;17.10;62.94;100205.78;5087700;28;5174;-78
2023/07/15 08:31:28;;;;;;;;;;;;;;;17.11;62.86;100204.69;5105464;27;5571;-78
2023/07/15 08:33:55;;;;;;;;;;;;;;;17.10;62.91;100206.59;5106355;27;5424;-76
2023/07/15 08:36:22;;;;;;;;;;;;;;;17.10;62.80;100206.59;5073470;28;5313;-78
2023/07/15 08:38:49;;;;;;;;;;;;;;;17.09;62.90;100202.25;5107285;27;5244;-77
2023/07/15 08:41:16;;;;;;;;;;;;;;;17.11;62.95;100207.41;5090802;28;5272;-77
2023/07/15 08:43:45;;;;;;;;;;;;;;;17.11;62.84;100201.97;5073736;28;5145;-75
2023/07/15 08:46:12;;;;;;;;;;;;;;;17.10;62.86;100195.69;5079244;28;5192;-77
2023/07/15 08:48:38;;;;;;;;;;;;;;;17.11;62.88;100193.78;5099846;28;5263;-76
2023/07/15 08:51:05;;;;;;;;;;;;;;;17.11;62.83;100199.22;5085153;28;5226;-75
2023/07/15 08:53:36;;;;;;;;;;;;;;;17.12;62.82;100198.13;5097320;28;5575;-77
2023/07/15 08:56:03;;;;;;;;;;;;;;;17.12;62.93;100193.53;5095148;28;5258;-79
2023/07/15 08:58:30;;;;;;;;;;;;;;;17.12;62.75;100188.09;5074209;28;5154;-78
2023/07/15 09:00:58;;;;;;;;;;;;;;;17.12;62.82;100192.69;5095233;28;5646;-78
2023/07/15 09:03:25;;;;;;;;;;;;;;;17.11;62.94;100189.16;5074678;28;5239;-78
2023/07/15 09:05:52;;;;;;;;;;;;;;;17.11;63.02;100191.88;5109646;27;5342;-77
2023/07/15 09:08:18;;;;;;;;;;;;;;;17.12;62.94;100185.38;5093123;27;5372;-78
2023/07/15 09:10:45;;;;;;;;;;;;;;;17.12;62.57;100184.53;5079901;28;5106;-81
2023/07/15 09:13:11;;;;;;;;;;;;;;;17.11;62.91;100180.19;5072943;28;5199;-78
2023/07/15 09:15:41;;;;;;;;;;;;;;;17.11;62.79;100182.91;5095425;27;5426;-78
2023/07/15 09:18:07;;;;;;;;;;;;;;;17.12;62.81;100177.22;5101132;27;5557;-79
2023/07/15 09:20:34;;;;;;;;;;;;;;;17.11;62.90;100183.72;5100271;27;5639;-81
2023/07/15 09:23:00;;;;;;;;;;;;;;;17.13;62.73;100183.47;5101028;28;5466;-79
2023/07/15 09:25:27;;;;;;;;;;;;;;;17.13;62.89;100181.56;5098262;27;5398;-79
2023/07/15 09:27:53;;;;;;;;;;;;;;;17.12;62.69;100177.22;5099865;28;4968;-80
2023/07/15 09:30:20;;;;;;;;;;;;;;;17.13;62.68;100181.56;5096468;28;5222;-80
2023/07/15 09:32:47;;;;;;;;;;;;;;;17.14;62.86;100176.94;5096561;28;5218;-79
2023/07/15 09:35:15;;;;;;;;;;;;;;;17.13;62.74;100176.13;5081287;28;5072;-78
2023/07/15 09:37:41;;;;;;;;;;;;;;;17.13;62.74;100173.38;5098163;28;5139;-80
2023/07/15 09:40:08;;;;;;;;;;;;;;;17.14;62.90;100174.19;5097740;28;5070;-80
2023/07/15 09:42:35;;;;;;;;;;;;;;;17.12;62.66;100171.78;5105243;28;5072;-80
2023/07/15 09:45:01;;;;;;;;;;;;;;;17.14;62.52;100177.72;5104401;27;5228;-79
2023/07/15 09:47:29;;;;;;;;;;;;;;;17.14;62.67;100169.56;5108406;28;5468;-80
2023/07/15 09:49:55;;;;;;;;;;;;;;;17.13;62.83;100162.50;5108606;28;5776;-79
2023/07/15 09:52:22;;;;;;;;;;;;;;;17.14;62.72;100166.03;5109100;27;5309;-79
2023/07/15 09:54:48;;;;;;;;;;;;;;;17.12;62.82;100160.88;5108330;28;5222;-80
2023/07/15 09:57:15;;;;;;;;;;;;;;;17.13;62.86;100154.34;5103460;28;5260;-81
2023/07/15 09:59:42;;;;;;;;;;;;;;;17.13;62.79;100153.53;5108126;27;5758;-85
2023/07/15 10:02:08;;;;;;;;;;;;;;;17.11;62.78;100156.50;5103403;28;5287;-82
2023/07/15 10:04:35;;;;;;;;;;;;;;;17.12;62.85;100151.88;5109113;28;5410;-81
2023/07/15 10:07:02;;;;;;;;;;;;;;;17.11;62.77;100151.06;5108093;27;5509;-81
2023/07/15 10:09:28;;;;;;;;;;;;;;;17.12;62.76;100152.72;5104093;28;5259;-84
2023/07/15 10:11:55;;;;;;;;;;;;;;;17.11;62.61;100136.66;5108511;28;5194;-82
2023/07/15 10:14:21;;;;;;;;;;;;;;;17.11;62.80;100142.91;5102143;28;5333;-81
2023/07/15 10:16:48;;;;;;;;;;;;;;;17.11;62.81;100139.38;5109091;28;5262;-80
2023/07/15 10:19:14;;;;;;;;;;;;;;;17.10;62.75;100133.13;5105079;28;5267;-82
2023/07/15 10:21:41;;;;;;;;;;;;;;;17.10;62.88;100130.41;5100005;28;5250;-82
2023/07/15 10:24:09;;;;;;;;;;;;;;;17.11;62.88;100132.03;5099778;28;5134;-81
2023/07/15 10:26:36;;;;;;;;;;;;;;;17.10;62.64;100132.31;5098883;28;5054;-80
2023/07/15 10:29:05;;;;;;;;;;;;;;;17.10;62.71;100126.88;5086249;28;4889;-79
2023/07/15 10:31:31;;;;;;;;;;;;;;;17.11;62.83;100128.50;5099096;28;4930;-83
2023/07/15 10:33:58;;;;;;;;;;;;;;;17.11;62.79;100123.06;5096754;28;4931;-82
2023/07/15 10:36:25;;;;;;;;;;;;;;;17.10;62.80;100107.84;5103430;28;5134;-80
2023/07/15 10:38:51;;;;;;;;;;;;;;;17.10;62.82;100100.47;5107631;28;5173;-76
2023/07/15 10:41:19;;;;;;;;;;;;;;;17.10;62.72;100096.94;5087602;28;5172;-81
2023/07/15 10:43:45;;;;;;;;;;;;;;;17.10;62.61;100091.50;5107798;27;5068;-83
2023/07/15 10:46:12;;;;;;;;;;;;;;;17.10;62.67;100081.44;5102150;27;5228;-84
2023/07/15 10:48:38;;;;;;;;;;;;;;;17.11;62.78;100090.41;5099244;27;5001;-82
2023/07/15 10:51:05;;;;;;;;;;;;;;;17.10;62.80;100086.06;5100122;27;4966;-81
2023/07/15 10:53:32;;;;;;;;;;;;;;;17.09;62.75;100085.25;5101032;28;5032;-83
2023/07/15 10:55:58;;;;;;;;;;;;;;;17.08;62.65;100089.03;5099673;27;5125;-80
2023/07/15 10:58:25;;;;;;;;;;;;;;;17.10;62.72;100092.31;5097008;27;4952;-84
2023/07/15 11:00:51;;;;;;;;;;;;;;;17.10;62.69;100088.78;5080364;28;5025;-82
2023/07/15 11:03:18;;;;;;;;;;;;;;;17.10;62.86;100086.88;5098284;27;5019;-84
2023/07/15 11:05:45;;;;;;;;;;;;;;;17.10;62.90;100084.16;5084963;28;4886;-83
2023/07/15 11:08:11;;;;;;;;;;;;;;;17.10;62.74;100078.72;5097353;28;4981;-82
2023/07/15 11:10:38;;;;;;;;;;;;;;;17.12;62.68;100081.13;5079787;27;5076;-79
2023/07/15 11:13:04;;;;;;;;;;;;;;;17.09;62.80;100074.38;5041762;28;4941;-82
2023/07/15 11:15:31;;;;;;;;;;;;;;;17.09;62.72;100068.94;5058856;28;4876;-82
2023/07/15 11:17:57;;;;;;;;;;;;;;;17.09;62.80;100074.38;5059334;28;4719;-81
2023/07/15 11:20:24;;;;;;;;;;;;;;;17.10;62.67;100069.75;5055857;28;5042;-80
2023/07/15 11:22:51;;;;;;;;;;;;;;;17.09;62.80;100071.66;5056016;28;4865;-80
2023/07/15 11:25:17;;;;;;;;;;;;;;;17.08;62.85;100064.56;5038057;28;4999;-78
2023/07/15 11:27:44;;;;;;;;;;;;;;;17.09;62.92;100071.66;5051069;28;5054;-78
2023/07/15 11:30:10;;;;;;;;;;;;;;;17.07;62.91;100062.94;5057192;28;5231;-77
2023/07/15 11:32:37;;;;;;;;;;;;;;;17.07;62.78;100056.69;5050845;28;5440;-76
2023/07/15 11:35:03;;;;;;;;;;;;;;;17.06;62.80;100052.31;5050422;28;5174;-75
2023/07/15 11:37:30;;;;;;;;;;;;;;;17.07;62.77;100053.97;5051877;28;5021;-76
2023/07/15 11:39:56;;;;;;;;;;;;;;;17.07;62.74;100053.97;5050669;28;5442;-76
2023/07/15 11:42:25;;;;;;;;;;;;;;;17.07;62.81;100046.63;5053096;28;5200;-76
2023/07/15 11:44:52;;;;;;;;;;;;;;;17.06;62.78;100025.13;5053454;28;5669;-75
2023/07/15 11:47:18;;;;;;;;;;;;;;;17.04;62.74;100014.53;5054787;28;5746;-78
2023/07/15 11:49:45;;;;;;;;;;;;;;;17.05;62.88;100020.78;5050048;28;5282;-77
2023/07/15 11:52:12;;;;;;;;;;;;;;;17.05;62.71;100021.59;5050173;28;5629;-76
2023/07/15 11:54:38;;;;;;;;;;;;;;;17.06;62.79;100038.72;5049932;28;5448;-76
2023/07/15 11:57:07;;;;;;;;;;;;;;;17.05;62.79;100040.63;5050627;28;6339;-77
2023/07/15 11:59:34;;;;;;;;;;;;;;;17.05;62.93;100037.09;5049816;28;6175;-76
2023/07/15 12:02:01;;;;;;;;;;;;;;;17.02;62.80;100047.44;5061261;28;5563;-78
2023/07/15 12:04:31;;;;;;;;;;;;;;;17.03;62.94;100048.28;5058678;28;6327;-75
2023/07/15 12:06:58;;;;;;;;;;;;;;;17.03;62.90;100051.00;5056430;28;6029;-78
2023/07/15 12:09:25;;;;;;;;;;;;;;;17.01;63.07;100040.38;5059874;28;5163;-78
2023/07/15 12:11:51;;;;;;;;;;;;;;;17.01;62.92;100043.09;5070483;28;5691;-76
2023/07/15 12:14:18;;;;;;;;;;;;;;;17.02;63.00;100041.19;5069859;28;5719;-78
2023/07/15 12:16:44;;;;;;;;;;;;;;;17.00;62.80;100036.03;5046516;28;5812;-76
2023/07/15 12:19:11;;;;;;;;;;;;;;;17.00;62.95;100036.03;5074045;28;5962;-76
2023/07/15 12:21:37;;;;;;;;;;;;;;;17.00;63.01;100035.19;5078573;28;6250;-76
2023/07/15 12:24:04;;;;;;;;;;;;;;;17.00;62.94;100035.19;5080776;28;5683;-76
2023/07/15 12:26:30;;;;;;;;;;;;;;;17.00;62.83;100033.31;5080993;28;5906;-76
2023/07/15 12:28:57;;;;;;;;;;;;;;;17.00;62.86;100038.75;5085464;28;5290;-77
2023/07/15 12:31:24;;;;;;;;;;;;;;;17.00;63.08;100025.16;5081634;28;6170;-76
2023/07/15 12:33:50;;;;;;;;;;;;;;;17.00;62.81;100022.44;5084196;28;6225;-77
2023/07/15 12:36:17;;;;;;;;;;;;;;;17.05;62.84;100021.59;5084040;28;5917;-74
2023/07/15 12:38:43;;;;;;;;;;;;;;;17.12;62.48;100019.41;5084879;28;6160;-78
2023/07/15 12:41:10;;;;;;;;;;;;;;;17.09;62.52;100019.13;5083636;28;5962;-75
2023/07/15 12:43:36;;;;;;;;;;;;;;;17.30;61.98;100015.28;5081906;28;5854;-77
2023/07/15 12:46:03;;;;;;;;;;;;;;;17.26;61.88;100003.28;5085197;28;5214;-78
2023/07/15 12:48:29;;;;;;;;;;;;;;;17.14;62.37;100010.94;5083825;28;6147;-76
2023/07/15 12:50:56;;;;;;;;;;;;;;;17.11;62.52;100006.06;5065703;28;5117;-75